PWSweather.com
Personal Weather Stations
Station Observations
KCACHEST1
Chester, CA 96020

Chester, CA 96020

Lat: 40.2965, Lon: -121.228088

Elevation: 4530

Station Type: Davis Vantage Pro

http://www.chesterweathercenter.com/

Latest ConditionsUpdated 8:50:08 AM PDT Saturday, Apr 25, 2015
Currently Today's Max Today's Min Today's Average
Temperature 38.6°F3.7°C 41.6°F5.3°C 33.7°F0.9°C 36.1°F2.3°C
Dew Point 35.6°F2.0°C 35.9°F2.2°C 29.7°F-1.3°C 32.1°F0.1°C
Winds Calm Calm Calm NCalm N - Calm Calm
Wind Gusts 1.0 mph1.6 kmh 1.0 mph1.6 kmh - -
Humidity 89% 89% 80% 85%
Pressure 29.68 in1005.1 mb 29.69 in1005.4 mb 29.58 in1001.7 mb -
Hour Temp Dew Point Humidity Winds Wind Gusts Pressure Precip Precip Rate Daily Precip Total
08:50 AM 38.6°F3.7°C 35.6°F2.0°C 89% Calm Calm 1.0 mph1.6 kmh 29.68 in1005.1 mb - 0.00 in0.0 mm 0.41 in10.4 mm
08:40 AM 38.6°F3.7°C 35.6°F2.0°C 89% Calm Calm -- 29.69 in1005.4 mb - 0.00 in0.0 mm 0.41 in10.4 mm
08:30 AM 38.0°F3.3°C 35.1°F1.7°C 89% Calm Calm -- 29.69 in1005.4 mb - 0.00 in0.0 mm 0.41 in10.4 mm
08:20 AM 37.9°F3.3°C 34.9°F1.6°C 89% Calm Calm -- 29.69 in1005.4 mb - 0.01 in0.3 mm 0.41 in10.4 mm
08:10 AM 36.9°F2.7°C 33.9°F1.1°C 89% Calm Calm -- 29.68 in1005.1 mb - 0.01 in0.3 mm 0.40 in10.2 mm
08:00 AM 36.1°F2.3°C 33.2°F0.7°C 89% Calm Calm -- 29.68 in1005.1 mb - 0.01 in0.3 mm 0.39 in9.9 mm
07:50 AM 35.7°F2.1°C 32.5°F0.3°C 88% Calm Calm -- 29.68 in1005.1 mb - 0.00 in0.0 mm 0.38 in9.7 mm
07:40 AM 35.3°F1.8°C 32.1°F0.1°C 88% Calm Calm -- 29.68 in1005.1 mb - 0.01 in0.3 mm 0.38 in9.7 mm
07:30 AM 34.8°F1.6°C 31.6°F-0.2°C 88% Calm Calm -- 29.68 in1005.1 mb - 0.00 in0.0 mm 0.37 in9.4 mm
07:20 AM 34.4°F1.3°C 31.2°F-0.4°C 88% Calm Calm -- 29.69 in1005.4 mb - 0.00 in0.0 mm 0.37 in9.4 mm
07:10 AM 34.4°F1.3°C 31.2°F-0.4°C 88% Calm Calm -- 29.68 in1005.1 mb - 0.01 in0.3 mm 0.37 in9.4 mm
07:00 AM 34.3°F1.3°C 31.1°F-0.5°C 88% Calm Calm -- 29.68 in1005.1 mb - 0.00 in0.0 mm 0.36 in9.1 mm
06:50 AM 34.2°F1.2°C 31.0°F-0.6°C 88% Calm Calm -- 29.68 in1005.1 mb - 0.01 in0.3 mm 0.36 in9.1 mm
06:40 AM 34.1°F1.2°C 30.9°F-0.6°C 88% Calm Calm -- 29.68 in1005.1 mb - 0.00 in0.0 mm 0.35 in8.9 mm
06:30 AM 34.0°F1.1°C 30.5°F-0.8°C 87% Calm Calm -- 29.68 in1005.1 mb - 0.00 in0.0 mm 0.35 in8.9 mm
06:20 AM 33.8°F1.0°C 30.3°F-0.9°C 87% Calm Calm -- 29.67 in1004.7 mb - 0.00 in0.0 mm 0.35 in8.9 mm
06:10 AM 33.8°F1.0°C 30.3°F-0.9°C 87% Calm Calm -- 29.67 in1004.7 mb - 0.01 in0.3 mm 0.35 in8.9 mm
06:00 AM 33.7°F0.9°C 30.2°F-1.0°C 87% Calm Calm -- 29.66 in1004.4 mb - 0.00 in0.0 mm 0.34 in8.6 mm
05:50 AM 33.7°F0.9°C 30.2°F-1.0°C 87% Calm Calm -- 29.66 in1004.4 mb - 0.00 in0.0 mm 0.34 in8.6 mm
05:40 AM 33.7°F0.9°C 30.2°F-1.0°C 87% Calm Calm -- 29.66 in1004.4 mb - 0.01 in0.3 mm 0.34 in8.6 mm
05:30 AM 33.8°F1.0°C 30.1°F-1.1°C 86% Calm Calm -- 29.65 in1004.1 mb - 0.00 in0.0 mm 0.33 in8.4 mm
05:20 AM 34.0°F1.1°C 30.3°F-0.9°C 86% Calm Calm -- 29.64 in1003.7 mb - 0.01 in0.3 mm 0.33 in8.4 mm
05:10 AM 34.3°F1.3°C 30.5°F-0.8°C 86% Calm Calm -- 29.64 in1003.7 mb - 0.00 in0.0 mm 0.32 in8.1 mm
05:00 AM 34.4°F1.3°C 30.6°F-0.8°C 86% Calm Calm -- 29.62 in1003.0 mb - 0.01 in0.3 mm 0.32 in8.1 mm
04:50 AM 34.6°F1.4°C 30.8°F-0.7°C 86% Calm Calm -- 29.62 in1003.0 mb - 0.00 in0.0 mm 0.31 in7.9 mm
04:40 AM 34.7°F1.5°C 30.9°F-0.6°C 86% Calm Calm -- 29.62 in1003.0 mb - 0.01 in0.3 mm 0.31 in7.9 mm
04:30 AM 35.0°F1.7°C 31.2°F-0.4°C 86% Calm Calm -- 29.62 in1003.0 mb - 0.00 in0.0 mm 0.30 in7.6 mm
04:20 AM 34.8°F1.6°C 31.3°F-0.4°C 87% Calm Calm -- 29.62 in1003.0 mb - 0.01 in0.3 mm 0.30 in7.6 mm
04:10 AM 34.6°F1.4°C 30.8°F-0.7°C 86% Calm Calm -- 29.61 in1002.7 mb - 0.00 in0.0 mm 0.29 in7.4 mm
04:00 AM 34.3°F1.3°C 30.3°F-0.9°C 85% Calm Calm -- 29.62 in1003.0 mb - 0.01 in0.3 mm 0.29 in7.4 mm
03:50 AM 34.3°F1.3°C 30.3°F-0.9°C 85% Calm Calm -- 29.62 in1003.0 mb - 0.01 in0.3 mm 0.28 in7.1 mm
03:40 AM 34.3°F1.3°C 30.3°F-0.9°C 85% Calm Calm -- 29.63 in1003.4 mb - 0.01 in0.3 mm 0.27 in6.9 mm
03:30 AM 34.1°F1.2°C 30.1°F-1.1°C 85% Calm Calm -- 29.63 in1003.4 mb - 0.00 in0.0 mm 0.26 in6.6 mm
03:20 AM 34.1°F1.2°C 29.8°F-1.2°C 84% Calm Calm -- 29.63 in1003.4 mb - 0.01 in0.3 mm 0.26 in6.6 mm
03:10 AM 34.3°F1.3°C 29.7°F-1.3°C 83% Calm Calm -- 29.63 in1003.4 mb - 0.00 in0.0 mm 0.25 in6.4 mm
03:00 AM 34.6°F1.4°C 30.0°F-1.1°C 83% Calm Calm -- 29.60 in1002.4 mb - 0.01 in0.3 mm 0.25 in6.4 mm
02:50 AM 34.9°F1.6°C 30.3°F-0.9°C 83% Calm Calm -- 29.61 in1002.7 mb - 0.00 in0.0 mm 0.24 in6.1 mm
02:40 AM 35.2°F1.8°C 30.3°F-0.9°C 82% Calm Calm -- 29.61 in1002.7 mb - 0.01 in0.3 mm 0.24 in6.1 mm
02:30 AM 35.6°F2.0°C 30.6°F-0.8°C 82% Calm Calm -- 29.61 in1002.7 mb - 0.00 in0.0 mm 0.23 in5.8 mm
02:20 AM 36.2°F2.3°C 31.2°F-0.4°C 82% Calm Calm -- 29.60 in1002.4 mb - 0.01 in0.3 mm 0.23 in5.8 mm
02:10 AM 36.8°F2.7°C 31.9°F-0.1°C 82% Calm Calm -- 29.61 in1002.7 mb - 0.01 in0.3 mm 0.22 in5.6 mm
02:00 AM 37.5°F3.1°C 32.5°F0.3°C 82% Calm Calm -- 29.59 in1002.0 mb - 0.01 in0.3 mm 0.21 in5.3 mm
01:50 AM 38.2°F3.4°C 33.2°F0.7°C 82% Calm Calm -- 29.58 in1001.7 mb - 0.01 in0.3 mm 0.20 in5.1 mm
01:40 AM 38.8°F3.8°C 34.1°F1.2°C 83% Calm Calm -- 29.58 in1001.7 mb - 0.02 in0.5 mm 0.19 in4.8 mm
01:30 AM 39.1°F3.9°C 34.4°F1.3°C 83% Calm Calm -- 29.58 in1001.7 mb - 0.02 in0.5 mm 0.17 in4.3 mm
01:20 AM 39.3°F4.1°C 34.6°F1.4°C 83% Calm Calm -- 29.58 in1001.7 mb - 0.01 in0.3 mm 0.15 in3.8 mm
01:10 AM 39.6°F4.2°C 34.9°F1.6°C 83% Calm Calm -- 29.58 in1001.7 mb - 0.01 in0.3 mm 0.14 in3.6 mm
01:00 AM 39.5°F4.2°C 34.8°F1.6°C 83% Calm Calm -- 29.59 in1002.0 mb - 0.02 in0.5 mm 0.13 in3.3 mm
12:50 AM 40.0°F4.4°C 35.2°F1.8°C 83% Calm Calm -- 29.59 in1002.0 mb - 0.03 in0.8 mm 0.11 in2.8 mm
12:40 AM 40.3°F4.6°C 35.5°F1.9°C 83% Calm Calm -- 29.59 in1002.0 mb - 0.02 in0.5 mm 0.08 in2.0 mm
12:30 AM 40.5°F4.7°C 35.8°F2.1°C 83% Calm Calm -- 29.59 in1002.0 mb - 0.02 in0.5 mm 0.06 in1.5 mm
12:20 AM 40.8°F4.9°C 35.7°F2.1°C 82% Calm Calm -- 29.59 in1002.0 mb - 0.01 in0.3 mm 0.04 in1.0 mm
12:10 AM 41.1°F5.1°C 35.7°F2.1°C 81% Calm Calm -- 29.60 in1002.4 mb - 0.02 in0.5 mm 0.03 in0.8 mm
12:00 AM 41.6°F5.3°C 35.9°F2.2°C 80% Calm Calm -- 29.60 in1002.4 mb - 0.01 in0.3 mm 0.01 in0.3 mm